createdAt,value
2018-07-27T00:01:08.409Z,45.70
2018-07-27T00:03:43.516Z,46.80
2018-07-27T00:06:18.515Z,46.00
2018-07-27T00:08:53.565Z,47.00
2018-07-27T00:11:28.532Z,46.90
2018-07-27T00:14:03.481Z,46.70
2018-07-27T00:16:38.440Z,47.80
2018-07-27T00:19:13.536Z,48.40
2018-07-27T00:21:48.607Z,48.60
2018-07-27T00:24:23.600Z,48.50
2018-07-27T00:26:58.560Z,49.40
2018-07-27T00:29:33.516Z,47.80
2018-07-27T00:32:08.571Z,47.80
2018-07-27T00:34:43.581Z,47.80
2018-07-27T00:37:18.691Z,48.10
2018-07-27T00:39:53.647Z,48.20
2018-07-27T00:42:28.836Z,48.50
2018-07-27T00:45:04.420Z,47.90
2018-07-27T00:47:39.504Z,48.20
2018-07-27T00:50:14.553Z,48.60
2018-07-27T00:52:49.473Z,48.60
2018-07-27T00:55:24.592Z,49.80
2018-07-27T00:57:59.791Z,49.90
2018-07-27T01:00:34.848Z,49.40
2018-07-27T01:03:10.117Z,50.10
2018-07-27T01:05:45.332Z,49.80
2018-07-27T01:08:20.463Z,49.80
2018-07-27T01:10:55.499Z,50.00
2018-07-27T01:13:30.500Z,49.70
2018-07-27T01:18:40.172Z,50.50
2018-07-27T01:21:15.433Z,50.50
2018-07-27T01:23:50.613Z,50.90
2018-07-27T01:26:25.688Z,50.90
2018-07-27T01:29:00.849Z,51.00
2018-07-27T01:31:35.953Z,51.20
2018-07-27T01:34:11.128Z,51.20
2018-07-27T01:36:46.263Z,50.70
2018-07-27T01:39:21.480Z,51.20
2018-07-27T01:41:57.387Z,51.40
2018-07-27T01:44:32.600Z,51.70
2018-07-27T01:47:07.647Z,52.70
2018-07-27T01:49:42.645Z,53.80
2018-07-27T01:52:17.659Z,53.00
2018-07-27T01:54:52.848Z,53.30
2018-07-27T01:57:27.868Z,53.40
2018-07-27T02:00:02.996Z,53.60
2018-07-27T02:02:38.031Z,53.40
2018-07-27T02:05:13.120Z,53.40
2018-07-27T02:07:48.299Z,54.40
2018-07-27T02:10:23.476Z,54.90
2018-07-27T02:12:58.552Z,54.70
2018-07-27T02:15:33.668Z,54.90
2018-07-27T02:18:08.680Z,55.30
2018-07-27T02:20:43.649Z,55.40
2018-07-27T02:23:19.192Z,55.50
2018-07-27T02:25:54.260Z,55.80
2018-07-27T02:28:29.304Z,56.30
2018-07-27T02:31:04.309Z,55.50
2018-07-27T02:33:39.496Z,56.50
2018-07-27T02:36:14.577Z,56.60
2018-07-27T02:38:49.783Z,57.00
2018-07-27T02:41:24.732Z,57.10
2018-07-27T02:43:59.749Z,57.50
2018-07-27T02:46:34.675Z,57.50
2018-07-27T02:49:09.692Z,57.50
2018-07-27T02:51:44.861Z,57.50
2018-07-27T02:54:20.004Z,57.80
2018-07-27T02:56:55.162Z,58.20
2018-07-27T02:59:30.088Z,58.30
2018-07-27T03:02:05.291Z,58.40
2018-07-27T03:04:40.554Z,58.90
2018-07-27T03:07:15.520Z,58.60
2018-07-27T03:09:50.514Z,59.10
2018-07-27T03:12:25.548Z,59.40
2018-07-27T03:15:00.521Z,59.60
2018-07-27T03:17:35.620Z,59.70
2018-07-27T03:20:10.607Z,60.00
2018-07-27T03:22:45.676Z,59.80
2018-07-27T03:25:20.880Z,59.90
2018-07-27T03:27:56.080Z,60.70
2018-07-27T03:30:31.155Z,60.90
2018-07-27T03:33:06.395Z,61.40
2018-07-27T03:35:41.356Z,61.90
2018-07-27T03:38:16.476Z,61.60
2018-07-27T03:40:51.416Z,61.40
2018-07-27T03:43:26.411Z,61.50
2018-07-27T03:46:01.500Z,61.30
2018-07-27T03:48:36.468Z,61.30
2018-07-27T03:51:11.437Z,61.50
2018-07-27T03:53:46.404Z,61.80
2018-07-27T03:58:56.471Z,62.00
2018-07-27T04:01:31.441Z,61.70
2018-07-27T04:04:06.413Z,62.60
2018-07-27T04:06:41.461Z,63.80
2018-07-27T04:09:16.508Z,63.90
2018-07-27T04:11:51.564Z,63.80
2018-07-27T04:14:26.508Z,64.30
2018-07-27T04:25:18.156Z,64.40
2018-07-27T04:27:53.276Z,64.40
2018-07-27T04:30:28.261Z,64.10
2018-07-27T04:33:03.360Z,63.10
2018-07-27T04:35:38.551Z,63.20
2018-07-27T04:38:13.645Z,64.40
2018-07-27T04:40:48.641Z,63.20
2018-07-27T04:43:23.684Z,63.10
2018-07-27T04:45:58.784Z,61.80
2018-07-27T04:48:33.988Z,62.20
2018-07-27T04:51:09.347Z,61.60
2018-07-27T04:53:44.372Z,61.50
2018-07-27T04:56:19.346Z,61.40
2018-07-27T04:58:54.404Z,62.70
2018-07-27T05:01:29.456Z,59.70
2018-07-27T05:04:04.774Z,59.90
2018-07-27T05:06:39.745Z,59.80
2018-07-27T05:09:20.928Z,58.90
2018-07-27T05:11:55.983Z,57.30
2018-07-27T05:14:31.032Z,57.80
2018-07-27T05:17:06.156Z,57.00
2018-07-27T05:19:41.207Z,57.50
2018-07-27T05:22:16.224Z,58.10
2018-07-27T05:24:51.241Z,57.40
2018-07-27T05:30:00.920Z,57.50
2018-07-27T05:32:36.043Z,57.20
2018-07-27T05:35:11.184Z,56.40
2018-07-27T05:37:47.048Z,56.10
2018-07-27T05:40:22.187Z,56.10
2018-07-27T05:42:57.256Z,55.50
2018-07-27T05:45:32.340Z,55.70
2018-07-27T05:48:07.293Z,55.00
2018-07-27T05:50:42.429Z,55.00
2018-07-27T05:53:17.524Z,55.40
2018-07-27T05:55:52.619Z,54.10
2018-07-27T05:58:27.860Z,54.10
2018-07-27T06:01:03.070Z,54.20
2018-07-27T06:03:38.136Z,53.50
2018-07-27T06:06:13.173Z,53.60
2018-07-27T06:08:48.255Z,53.00
2018-07-27T06:11:23.212Z,53.20
2018-07-27T06:13:58.179Z,53.20
2018-07-27T06:16:33.400Z,52.90
2018-07-27T06:19:08.388Z,53.20
2018-07-27T06:21:43.459Z,53.10
2018-07-27T06:24:18.662Z,53.20
2018-07-27T06:26:53.514Z,51.90
2018-07-27T06:29:28.585Z,52.70
2018-07-27T06:32:03.671Z,51.30
2018-07-27T06:34:38.621Z,53.40
2018-07-27T06:37:14.083Z,50.90
2018-07-27T06:39:49.004Z,51.60
2018-07-27T06:42:24.065Z,51.20
2018-07-27T06:44:59.288Z,51.10
2018-07-27T06:47:34.381Z,50.60
2018-07-27T06:50:09.464Z,50.10
2018-07-27T06:52:44.556Z,51.10
2018-07-27T06:55:19.524Z,50.70
2018-07-27T06:57:54.865Z,50.70
2018-07-27T07:00:29.864Z,50.60
2018-07-27T07:03:05.232Z,49.40
2018-07-27T07:05:40.480Z,49.60
2018-07-27T07:08:15.404Z,48.60
2018-07-27T07:10:50.532Z,48.50
2018-07-27T07:13:25.624Z,49.70
2018-07-27T07:16:00.872Z,47.90
2018-07-27T07:18:36.135Z,48.30
2018-07-27T07:21:11.117Z,47.60
2018-07-27T07:23:46.174Z,47.40
2018-07-27T07:26:21.324Z,48.10
2018-07-27T07:28:56.816Z,47.70
2018-07-27T07:31:31.876Z,47.80
2018-07-27T07:36:41.621Z,48.00
2018-07-27T07:39:16.873Z,46.90
2018-07-27T07:41:51.988Z,46.90
2018-07-27T07:44:27.081Z,46.20
2018-07-27T07:47:02.280Z,46.20
2018-07-27T07:49:37.253Z,44.90
2018-07-27T07:52:12.732Z,45.30
2018-07-27T07:54:47.668Z,44.90
2018-07-27T07:57:22.755Z,45.70
2018-07-27T07:59:57.888Z,46.00
2018-07-27T08:02:32.828Z,46.20
2018-07-27T08:05:07.924Z,47.10
2018-07-27T08:07:42.940Z,47.70
2018-07-27T08:10:17.911Z,48.40
2018-07-27T08:12:52.870Z,49.10
2018-07-27T08:15:28.064Z,49.50
2018-07-27T08:18:03.120Z,49.70
2018-07-27T08:20:38.218Z,50.10
2018-07-27T08:23:13.244Z,50.30
2018-07-27T08:26:58.760Z,50.40
2018-07-27T08:29:36.067Z,50.80
2018-07-27T08:32:11.296Z,51.00
2018-07-27T08:34:46.435Z,51.20
2018-07-27T08:37:21.624Z,51.90
2018-07-27T08:39:56.704Z,51.70
2018-07-27T08:42:31.664Z,51.80
2018-07-27T08:45:06.628Z,52.10
2018-07-27T08:47:41.683Z,52.00
2018-07-27T08:50:16.852Z,52.00
2018-07-27T08:52:52.611Z,51.90
2018-07-27T08:55:27.656Z,52.00
2018-07-27T08:58:02.597Z,52.00
2018-07-27T09:00:48.990Z,52.20
2018-07-27T09:03:23.947Z,51.90
2018-07-27T09:05:59.116Z,52.30
2018-07-27T09:08:34.117Z,51.90
2018-07-27T09:11:09.188Z,52.10
2018-07-27T09:13:44.164Z,52.40
2018-07-27T09:16:19.676Z,52.70
2018-07-27T09:18:54.803Z,52.30
2018-07-27T09:21:29.980Z,52.80
2018-07-27T09:24:04.952Z,52.10
2018-07-27T09:26:39.966Z,52.80
2018-07-27T09:29:14.960Z,51.70
2018-07-27T09:31:50.092Z,51.70
2018-07-27T09:34:25.130Z,52.00
2018-07-27T09:37:00.045Z,50.90
2018-07-27T09:39:35.085Z,51.30
2018-07-27T09:42:10.060Z,52.10
2018-07-27T09:44:45.164Z,52.60
2018-07-27T09:47:20.088Z,52.50
2018-07-27T09:49:55.048Z,52.50
2018-07-27T09:52:30.076Z,52.80
2018-07-27T09:55:05.256Z,53.50
2018-07-27T09:57:40.277Z,53.40
2018-07-27T10:02:54.524Z,53.50
2018-07-27T10:05:29.856Z,54.10
2018-07-27T10:08:04.871Z,54.10
2018-07-27T10:10:39.928Z,53.90
2018-07-27T10:13:15.068Z,54.20
2018-07-27T10:15:50.112Z,54.20
2018-07-27T10:18:25.091Z,53.60
2018-07-27T10:21:00.195Z,52.50
2018-07-27T10:23:35.236Z,50.60
2018-07-27T10:26:10.489Z,50.50
2018-07-27T10:28:45.436Z,51.30
2018-07-27T10:31:20.525Z,51.90
2018-07-27T10:33:55.460Z,52.40
2018-07-27T10:36:30.559Z,52.60
2018-07-27T10:39:08.232Z,53.30
2018-07-27T10:41:43.235Z,53.80
2018-07-27T10:44:18.435Z,52.80
2018-07-27T10:46:53.544Z,53.80
2018-07-27T10:49:28.637Z,52.20
2018-07-27T10:52:03.716Z,53.00
2018-07-27T10:54:38.964Z,52.90
2018-07-27T10:57:14.104Z,53.50
2018-07-27T10:59:49.102Z,53.40
2018-07-27T11:02:24.348Z,53.50
2018-07-27T11:04:59.261Z,53.10
2018-07-27T11:07:34.412Z,53.60
2018-07-27T11:10:10.235Z,53.90
2018-07-27T11:12:45.164Z,53.90
2018-07-27T11:15:20.379Z,54.00
2018-07-27T11:17:55.531Z,54.50
2018-07-27T11:20:30.480Z,53.80
2018-07-27T11:23:05.553Z,54.20
2018-07-27T11:25:40.818Z,54.40
2018-07-27T11:30:50.619Z,55.80
2018-07-27T11:33:25.768Z,55.30
2018-07-27T11:36:00.888Z,55.50
2018-07-27T11:38:35.820Z,54.90
2018-07-27T11:41:10.808Z,54.40
2018-07-27T11:43:45.896Z,55.70
2018-07-27T11:46:20.892Z,56.10
2018-07-27T11:48:56.228Z,55.50
2018-07-27T11:54:06.691Z,56.40
2018-07-27T11:56:41.789Z,55.20
2018-07-27T11:59:16.935Z,55.40
2018-07-27T12:01:52.125Z,55.80
2018-07-27T12:04:27.206Z,54.90
2018-07-27T12:07:02.423Z,55.50
2018-07-27T12:09:37.309Z,55.60
2018-07-27T12:12:12.400Z,55.80
2018-07-27T12:14:47.663Z,56.70
2018-07-27T12:17:23.612Z,56.80
2018-07-27T12:19:58.716Z,57.10
2018-07-27T12:22:33.784Z,57.30
2018-07-27T12:25:08.972Z,55.40
2018-07-27T12:27:43.995Z,56.20
2018-07-27T12:30:19.146Z,56.90
2018-07-27T12:32:54.404Z,57.30
2018-07-27T12:35:29.591Z,57.30
2018-07-27T12:38:04.747Z,56.00
2018-07-27T12:40:39.927Z,55.80
2018-07-27T12:43:15.884Z,56.40
2018-07-27T12:45:50.952Z,56.90
2018-07-27T12:48:25.928Z,39.70
2018-07-27T12:51:00.998Z,37.40
2018-07-27T12:53:37.605Z,35.50
2018-07-27T12:56:12.516Z,33.20
2018-07-27T12:58:47.752Z,32.60
2018-07-27T13:01:22.868Z,32.30
2018-07-27T13:03:58.017Z,31.20
2018-07-27T13:06:33.256Z,30.10
2018-07-27T13:09:09.919Z,32.00
2018-07-27T13:11:45.107Z,29.90
2018-07-27T13:14:20.244Z,31.20
2018-07-27T13:16:55.167Z,31.00
2018-07-27T13:19:30.318Z,31.70
2018-07-27T13:22:05.461Z,39.40
2018-07-27T13:27:15.489Z,40.30
2018-07-27T13:29:50.544Z,38.10
2018-07-27T13:32:25.676Z,42.10
2018-07-27T13:35:01.194Z,37.50
2018-07-27T13:37:36.972Z,39.10
2018-07-27T13:40:11.992Z,34.80
2018-07-27T13:42:47.110Z,31.70
2018-07-27T13:45:22.241Z,31.10
2018-07-27T13:50:32.002Z,38.90
2018-07-27T13:53:07.308Z,43.10
2018-07-27T13:55:42.416Z,33.80
2018-07-27T13:58:17.578Z,30.80
2018-07-27T14:00:52.631Z,29.10
2018-07-27T14:03:27.699Z,31.20
2018-07-27T14:15:22.240Z,29.90
2018-07-27T14:20:32.116Z,29.50
2018-07-27T14:23:07.180Z,31.80
2018-07-27T14:25:42.843Z,34.00
2018-07-27T14:28:17.804Z,28.50
2018-07-27T14:30:52.916Z,28.40
2018-07-27T14:33:28.032Z,28.90
2018-07-27T14:36:03.124Z,32.80
2018-07-27T14:38:38.340Z,29.40
2018-07-27T14:41:13.435Z,30.80
2018-07-27T14:43:48.388Z,29.80
2018-07-27T14:46:23.422Z,32.60
2018-07-27T14:48:58.568Z,29.00
2018-07-27T14:51:33.571Z,28.50
2018-07-27T14:54:09.885Z,28.00
2018-07-27T14:56:44.828Z,28.30
2018-07-27T14:59:19.920Z,27.80
2018-07-27T15:01:55.032Z,28.20
2018-07-27T15:04:30.056Z,29.20
2018-07-27T15:07:05.248Z,31.60
2018-07-27T15:09:40.363Z,29.10
2018-07-27T15:12:16.456Z,28.50
2018-07-27T15:14:51.452Z,29.20
2018-07-27T15:17:26.560Z,28.50
2018-07-27T15:20:01.669Z,30.20
2018-07-27T15:22:36.768Z,29.40
2018-07-27T15:25:12.008Z,29.60
2018-07-27T15:27:47.266Z,29.50
2018-07-27T15:30:22.520Z,30.00
2018-07-27T15:32:57.711Z,30.10
2018-07-27T15:35:32.856Z,31.10
2018-07-27T15:38:07.988Z,33.30
2018-07-27T15:40:43.099Z,33.70
2018-07-27T15:43:18.263Z,31.90
2018-07-27T15:45:53.343Z,29.90
2018-07-27T15:48:28.618Z,29.90
2018-07-27T15:51:03.564Z,30.30
2018-07-27T15:53:38.631Z,29.70
2018-07-27T15:56:13.573Z,30.40
2018-07-27T15:58:48.669Z,30.00
2018-07-27T16:01:23.632Z,30.60
2018-07-27T16:03:58.764Z,33.50
2018-07-27T16:06:33.755Z,35.50
2018-07-27T16:09:09.604Z,31.60
2018-07-27T16:11:44.692Z,31.40
2018-07-27T16:14:19.648Z,31.40
2018-07-27T16:16:55.232Z,31.30
2018-07-27T16:19:31.753Z,31.60
2018-07-27T16:22:06.975Z,31.90
2018-07-27T16:24:42.067Z,32.40
2018-07-27T16:27:17.032Z,34.60
2018-07-27T16:29:52.128Z,31.70
2018-07-27T16:32:27.196Z,32.10
2018-07-27T16:35:02.253Z,35.10
2018-07-27T16:37:37.395Z,32.10
2018-07-27T16:40:12.647Z,34.80
2018-07-27T16:42:47.700Z,33.80
2018-07-27T16:45:22.774Z,35.60
2018-07-27T16:47:57.896Z,31.90
2018-07-27T16:50:33.144Z,32.60
2018-07-27T16:53:08.097Z,31.50
2018-07-27T16:55:43.189Z,31.40
2018-07-27T16:58:18.855Z,31.40
2018-07-27T17:00:53.932Z,31.40
2018-07-27T17:03:29.522Z,32.20
2018-07-27T17:06:04.771Z,31.20
2018-07-27T17:08:39.693Z,30.70
2018-07-27T17:13:49.524Z,33.80
2018-07-27T17:16:24.496Z,31.10
2018-07-27T17:18:59.585Z,31.20
2018-07-27T17:21:34.815Z,30.90
2018-07-27T17:24:09.798Z,33.50
2018-07-27T17:26:44.760Z,33.80
2018-07-27T17:31:54.426Z,33.30
2018-07-27T17:34:29.466Z,31.90
2018-07-27T17:37:04.696Z,35.00
2018-07-27T17:39:39.628Z,33.70
2018-07-27T17:42:14.764Z,33.80
2018-07-27T17:44:49.980Z,34.30
2018-07-27T17:47:25.247Z,32.30
2018-07-27T17:50:00.180Z,34.30
2018-07-27T17:52:35.118Z,31.30
2018-07-27T17:55:10.294Z,30.60
2018-07-27T17:57:45.233Z,30.80
2018-07-27T18:00:20.328Z,33.10
2018-07-27T18:02:55.447Z,30.20
2018-07-27T18:05:30.612Z,30.80
2018-07-27T18:08:05.943Z,29.90
2018-07-27T18:10:40.900Z,30.00
2018-07-27T18:13:16.076Z,30.20
2018-07-27T18:15:51.063Z,30.60
2018-07-27T18:18:26.228Z,30.20
2018-07-27T18:21:01.411Z,31.00
2018-07-27T18:23:36.874Z,30.60
2018-07-27T18:26:11.916Z,30.40
2018-07-27T18:28:47.052Z,30.90
2018-07-27T18:31:22.160Z,31.10
2018-07-27T18:33:57.331Z,31.30
2018-07-27T18:36:32.500Z,31.50
2018-07-27T18:39:09.427Z,31.70
2018-07-27T18:41:44.466Z,31.80
2018-07-27T18:44:19.455Z,32.20
2018-07-27T18:46:54.548Z,32.20
2018-07-27T18:49:29.703Z,32.60
2018-07-27T18:52:04.744Z,32.70
2018-07-27T18:54:39.816Z,32.70
2018-07-27T18:57:14.752Z,33.10
2018-07-27T18:59:49.879Z,33.40
2018-07-27T19:02:25.047Z,33.40
2018-07-27T19:05:00.195Z,33.60
2018-07-27T19:07:35.311Z,33.80
2018-07-27T19:10:10.366Z,33.60
2018-07-27T19:12:45.472Z,33.60
2018-07-27T19:15:20.716Z,33.80
2018-07-27T19:17:55.776Z,34.00
2018-07-27T19:20:30.899Z,34.10
2018-07-27T19:25:41.392Z,34.30
2018-07-27T19:28:16.520Z,34.90
2018-07-27T19:30:51.642Z,36.90
2018-07-27T19:33:26.608Z,35.50
2018-07-27T19:36:01.725Z,36.10
2018-07-27T19:38:36.942Z,36.00
2018-07-27T19:41:11.874Z,36.70
2018-07-27T19:43:46.978Z,36.70
2018-07-27T19:46:22.168Z,37.20
2018-07-27T19:48:57.157Z,37.50
2018-07-27T19:51:32.262Z,38.00
2018-07-27T19:54:07.196Z,38.50
2018-07-27T19:56:42.188Z,38.60
2018-07-27T19:59:17.282Z,39.20
2018-07-27T20:01:52.265Z,39.40
2018-07-27T20:04:27.364Z,39.90
2018-07-27T20:07:02.464Z,40.20
2018-07-27T20:09:37.619Z,40.50
2018-07-27T20:12:12.627Z,41.00
2018-07-27T20:14:47.768Z,41.00
2018-07-27T20:17:22.944Z,41.30
2018-07-27T20:22:33.164Z,42.20
2018-07-27T20:25:08.424Z,42.10
2018-07-27T20:27:43.580Z,42.60
2018-07-27T20:30:18.740Z,42.60
2018-07-27T20:32:53.856Z,43.00
2018-07-27T20:35:28.968Z,43.30
2018-07-27T20:38:04.376Z,43.60
2018-07-27T20:40:39.456Z,43.80
2018-07-27T20:43:14.564Z,44.00
2018-07-27T20:45:49.508Z,44.10
2018-07-27T20:48:24.733Z,44.30
2018-07-27T20:50:59.871Z,44.50
2018-07-27T20:56:09.648Z,44.80
2018-07-27T20:58:44.695Z,45.20
2018-07-27T21:01:19.884Z,45.40
2018-07-27T21:03:54.982Z,45.80
2018-07-27T21:06:30.085Z,45.80
2018-07-27T21:09:07.240Z,46.10
2018-07-27T21:11:42.623Z,45.80
2018-07-27T21:14:17.677Z,46.60
2018-07-27T21:16:52.760Z,44.90
2018-07-27T21:19:27.744Z,46.00
2018-07-27T21:22:02.812Z,46.90
2018-07-27T21:24:37.934Z,45.90
2018-07-27T21:27:13.009Z,44.00
2018-07-27T21:29:48.144Z,44.10
2018-07-27T21:32:23.202Z,44.10
2018-07-27T21:34:58.389Z,45.40
2018-07-27T21:37:33.400Z,43.40
2018-07-27T21:40:08.533Z,44.90
2018-07-27T21:42:43.599Z,44.10
2018-07-27T21:45:18.648Z,44.50
2018-07-27T21:47:53.629Z,45.50
2018-07-27T21:50:28.636Z,45.00
2018-07-27T21:53:03.612Z,45.00
2018-07-27T21:55:38.703Z,44.90
2018-07-27T21:58:13.921Z,44.60
2018-07-27T22:00:49.147Z,44.40
2018-07-27T22:03:24.152Z,44.20
2018-07-27T22:05:59.171Z,44.30
2018-07-27T22:08:34.276Z,45.10
2018-07-27T22:11:10.180Z,44.00
2018-07-27T22:13:45.879Z,44.30
2018-07-27T22:16:20.928Z,45.20
2018-07-27T22:18:55.888Z,44.70
2018-07-27T22:21:30.945Z,44.30
2018-07-27T22:24:06.033Z,43.50
2018-07-27T22:26:41.100Z,44.50
2018-07-27T22:29:16.068Z,44.10
2018-07-27T22:31:51.139Z,44.80
2018-07-27T22:34:26.255Z,43.60
2018-07-27T22:37:01.355Z,44.10
2018-07-27T22:39:36.328Z,45.20
2018-07-27T22:42:11.287Z,44.60
2018-07-27T22:44:46.259Z,45.20
2018-07-27T22:47:21.344Z,44.80
2018-07-27T22:49:56.488Z,45.70
2018-07-27T22:52:36.543Z,45.50
2018-07-27T22:55:12.623Z,45.60
2018-07-27T22:57:47.704Z,44.60
2018-07-27T23:00:22.916Z,45.90
2018-07-27T23:02:57.960Z,45.40
2018-07-27T23:05:33.104Z,45.50
2018-07-27T23:08:08.501Z,45.20
2018-07-27T23:13:18.260Z,45.10
2018-07-27T23:15:53.331Z,45.60
2018-07-27T23:18:28.336Z,46.80
2018-07-27T23:21:03.496Z,46.20
2018-07-27T23:23:38.432Z,47.10
2018-07-27T23:26:13.360Z,48.20
2018-07-27T23:28:48.476Z,48.90
2018-07-27T23:31:23.648Z,49.20
2018-07-27T23:33:58.780Z,49.10
2018-07-27T23:36:33.720Z,49.20
2018-07-27T23:39:10.786Z,49.10
2018-07-27T23:41:45.931Z,50.50
2018-07-27T23:44:21.044Z,50.50
2018-07-27T23:46:55.967Z,51.20
2018-07-27T23:49:31.104Z,51.30
2018-07-27T23:52:06.219Z,52.60
2018-07-27T23:54:41.352Z,50.80
2018-07-27T23:57:16.487Z,51.00
2018-07-27T23:59:51.878Z,51.60
